sensor_id;sensor_type;location;lat;lon;timestamp;pressure;altitude;pressure_sealevel;temperature;humidity
52249;BME280;38541;48.130;8.378;2022-11-15T00:00:58;92590.97;;;4.20;80.85
52249;BME280;38541;48.130;8.378;2022-11-15T00:03:43;92595.72;;;4.23;80.53
52249;BME280;38541;48.130;8.378;2022-11-15T00:06:28;92585.88;;;4.25;80.44
52249;BME280;38541;48.130;8.378;2022-11-15T00:09:13;92579.69;;;4.26;80.24
52249;BME280;38541;48.130;8.378;2022-11-15T00:11:58;92582.41;;;4.32;80.26
52249;BME280;38541;48.130;8.378;2022-11-15T00:14:43;92589.19;;;4.33;80.16
52249;BME280;38541;48.130;8.378;2022-11-15T00:17:28;92579.22;;;4.30;80.29
52249;BME280;38541;48.130;8.378;2022-11-15T00:20:13;92579.56;;;4.33;80.56
52249;BME280;38541;48.130;8.378;2022-11-15T00:22:58;92574.59;;;4.32;80.41
52249;BME280;38541;48.130;8.378;2022-11-15T00:25:43;92568.94;;;4.23;79.59
52249;BME280;38541;48.130;8.378;2022-11-15T00:28:28;92564.31;;;4.13;79.91
52249;BME280;38541;48.130;8.378;2022-11-15T00:31:14;92555.94;;;4.11;79.60
52249;BME280;38541;48.130;8.378;2022-11-15T00:33:59;92559.56;;;4.10;79.99
52249;BME280;38541;48.130;8.378;2022-11-15T00:36:44;92553.44;;;4.16;80.56
52249;BME280;38541;48.130;8.378;2022-11-15T00:39:29;92551.63;;;4.17;81.38
52249;BME280;38541;48.130;8.378;2022-11-15T00:42:14;92556.16;;;4.21;81.09
52249;BME280;38541;48.130;8.378;2022-11-15T00:44:58;92545.75;;;4.21;81.13
52249;BME280;38541;48.130;8.378;2022-11-15T00:47:44;92547.59;;;4.21;81.39
52249;BME280;38541;48.130;8.378;2022-11-15T00:50:30;92555.25;;;4.27;81.28
52249;BME280;38541;48.130;8.378;2022-11-15T00:53:16;92542.47;;;4.26;81.06
52249;BME280;38541;48.130;8.378;2022-11-15T00:56:01;92553.22;;;4.30;81.67
52249;BME280;38541;48.130;8.378;2022-11-15T00:58:46;92549.03;;;4.28;82.25
52249;BME280;38541;48.130;8.378;2022-11-15T01:01:31;92539.66;;;4.27;82.61
52249;BME280;38541;48.130;8.378;2022-11-15T01:04:31;92536.25;;;4.27;82.01
52249;BME280;38541;48.130;8.378;2022-11-15T01:07:16;92538.88;;;4.27;81.61
52249;BME280;38541;48.130;8.378;2022-11-15T01:10:01;92536.47;;;4.25;81.10
52249;BME280;38541;48.130;8.378;2022-11-15T01:12:45;92522.81;;;4.18;80.97
52249;BME280;38541;48.130;8.378;2022-11-15T01:15:30;92518.06;;;4.27;82.11
52249;BME280;38541;48.130;8.378;2022-11-15T01:18:15;92527.69;;;4.26;81.54
52249;BME280;38541;48.130;8.378;2022-11-15T01:21:05;92519.88;;;4.26;81.51
52249;BME280;38541;48.130;8.378;2022-11-15T01:23:53;92512.50;;;4.23;81.25
52249;BME280;38541;48.130;8.378;2022-11-15T01:26:39;92518.19;;;4.20;80.68
52249;BME280;38541;48.130;8.378;2022-11-15T01:29:24;92513.78;;;4.21;81.14
52249;BME280;38541;48.130;8.378;2022-11-15T01:32:09;92506.44;;;4.18;80.51
52249;BME280;38541;48.130;8.378;2022-11-15T01:34:54;92510.50;;;4.13;80.43
52249;BME280;38541;48.130;8.378;2022-11-15T01:37:39;92507.56;;;4.10;80.51
52249;BME280;38541;48.130;8.378;2022-11-15T01:40:24;92502.00;;;4.18;80.99
52249;BME280;38541;48.130;8.378;2022-11-15T01:43:39;92506.66;;;4.16;81.04
52249;BME280;38541;48.130;8.378;2022-11-15T01:46:25;92508.22;;;4.17;81.21
52249;BME280;38541;48.130;8.378;2022-11-15T01:49:15;92501.00;;;4.19;80.87
52249;BME280;38541;48.130;8.378;2022-11-15T01:52:05;92508.91;;;4.24;81.56
52249;BME280;38541;48.130;8.378;2022-11-15T01:55:00;92509.13;;;4.35;81.88
52249;BME280;38541;48.130;8.378;2022-11-15T01:57:50;92501.88;;;4.37;81.86
52249;BME280;38541;48.130;8.378;2022-11-15T02:00:37;92508.31;;;4.34;82.49
52249;BME280;38541;48.130;8.378;2022-11-15T02:03:26;92505.28;;;4.37;83.09
52249;BME280;38541;48.130;8.378;2022-11-15T02:06:15;92502.09;;;4.47;83.54
52249;BME280;38541;48.130;8.378;2022-11-15T02:09:00;92493.47;;;4.47;82.83
52249;BME280;38541;48.130;8.378;2022-11-15T02:11:46;92498.22;;;4.50;82.56
52249;BME280;38541;48.130;8.378;2022-11-15T02:14:32;92490.41;;;4.50;82.23
52249;BME280;38541;48.130;8.378;2022-11-15T02:17:55;92488.16;;;4.53;82.08
52249;BME280;38541;48.130;8.378;2022-11-15T02:20:43;92484.63;;;4.60;82.61
52249;BME280;38541;48.130;8.378;2022-11-15T02:23:58;92483.13;;;4.64;82.82
52249;BME280;38541;48.130;8.378;2022-11-15T02:32:50;92470.19;;;4.81;83.91
52249;BME280;38541;48.130;8.378;2022-11-15T02:41:35;92447.88;;;4.85;83.64
52249;BME280;38541;48.130;8.378;2022-11-15T02:44:37;92444.56;;;4.90;83.68
52249;BME280;38541;48.130;8.378;2022-11-15T02:47:24;92441.16;;;4.89;83.50
52249;BME280;38541;48.130;8.378;2022-11-15T02:50:14;92432.34;;;4.90;83.08
52249;BME280;38541;48.130;8.378;2022-11-15T02:53:00;92430.53;;;4.91;83.15
52249;BME280;38541;48.130;8.378;2022-11-15T02:55:50;92426.69;;;4.93;83.54
52249;BME280;38541;48.130;8.378;2022-11-15T02:59:01;92430.63;;;4.96;83.17
52249;BME280;38541;48.130;8.378;2022-11-15T03:05:34;92430.06;;;4.94;83.14
52249;BME280;38541;48.130;8.378;2022-11-15T03:08:42;92434.78;;;4.97;83.42
52249;BME280;38541;48.130;8.378;2022-11-15T03:11:36;92432.19;;;4.97;83.55
52249;BME280;38541;48.130;8.378;2022-11-15T03:14:30;92436.50;;;4.91;82.84
52249;BME280;38541;48.130;8.378;2022-11-15T03:17:26;92423.41;;;4.86;82.73
52249;BME280;38541;48.130;8.378;2022-11-15T03:20:16;92421.63;;;4.87;82.71
52249;BME280;38541;48.130;8.378;2022-11-15T03:23:08;92413.41;;;4.78;82.26
52249;BME280;38541;48.130;8.378;2022-11-15T03:25:54;92411.50;;;4.73;82.01
52249;BME280;38541;48.130;8.378;2022-11-15T03:28:42;92412.44;;;4.67;82.44
52249;BME280;38541;48.130;8.378;2022-11-15T03:31:32;92418.50;;;4.72;82.57
52249;BME280;38541;48.130;8.378;2022-11-15T03:34:52;92414.66;;;4.75;83.30
52249;BME280;38541;48.130;8.378;2022-11-15T03:37:57;92408.41;;;4.76;83.40
52249;BME280;38541;48.130;8.378;2022-11-15T03:40:58;92406.16;;;4.80;84.21
52249;BME280;38541;48.130;8.378;2022-11-15T03:43:48;92398.56;;;4.78;83.95
52249;BME280;38541;48.130;8.378;2022-11-15T03:46:41;92394.94;;;4.79;83.56
52249;BME280;38541;48.130;8.378;2022-11-15T03:49:33;92394.00;;;4.85;83.80
52249;BME280;38541;48.130;8.378;2022-11-15T03:52:20;92399.78;;;4.88;83.46
52249;BME280;38541;48.130;8.378;2022-11-15T03:55:06;92394.88;;;4.91;84.10
52249;BME280;38541;48.130;8.378;2022-11-15T03:57:55;92388.97;;;4.96;84.70
52249;BME280;38541;48.130;8.378;2022-11-15T04:00:42;92387.94;;;4.97;85.08
52249;BME280;38541;48.130;8.378;2022-11-15T04:03:27;92371.28;;;4.98;85.85
52249;BME280;38541;48.130;8.378;2022-11-15T04:06:13;92365.16;;;5.04;86.12
52249;BME280;38541;48.130;8.378;2022-11-15T04:08:58;92368.59;;;5.10;85.82
52249;BME280;38541;48.130;8.378;2022-11-15T04:11:43;92359.47;;;5.07;85.33
52249;BME280;38541;48.130;8.378;2022-11-15T04:14:28;92367.84;;;5.09;85.50
52249;BME280;38541;48.130;8.378;2022-11-15T04:17:13;92369.00;;;5.19;85.35
52249;BME280;38541;48.130;8.378;2022-11-15T04:19:58;92368.63;;;5.27;85.42
52249;BME280;38541;48.130;8.378;2022-11-15T04:23:04;92363.84;;;5.41;85.88
52249;BME280;38541;48.130;8.378;2022-11-15T04:26:15;92368.66;;;5.49;86.36
52249;BME280;38541;48.130;8.378;2022-11-15T04:29:01;92371.56;;;5.53;87.55
52249;BME280;38541;48.130;8.378;2022-11-15T04:32:06;92357.28;;;5.78;89.17
52249;BME280;38541;48.130;8.378;2022-11-15T04:34:51;92349.66;;;5.93;89.03
52249;BME280;38541;48.130;8.378;2022-11-15T04:37:36;92346.97;;;6.05;88.90
52249;BME280;38541;48.130;8.378;2022-11-15T04:40:20;92347.03;;;6.10;87.74
52249;BME280;38541;48.130;8.378;2022-11-15T04:43:05;92342.22;;;6.02;86.63
52249;BME280;38541;48.130;8.378;2022-11-15T04:45:51;92349.66;;;6.10;86.62
52249;BME280;38541;48.130;8.378;2022-11-15T04:48:36;92334.91;;;6.21;86.94
52249;BME280;38541;48.130;8.378;2022-11-15T04:51:21;92334.91;;;6.21;86.78
52249;BME280;38541;48.130;8.378;2022-11-15T04:54:06;92336.22;;;6.24;86.65
52249;BME280;38541;48.130;8.378;2022-11-15T04:56:51;92332.34;;;6.26;86.43
52249;BME280;38541;48.130;8.378;2022-11-15T04:59:35;92328.19;;;6.31;86.46
52249;BME280;38541;48.130;8.378;2022-11-15T05:02:20;92333.72;;;6.34;86.77
52249;BME280;38541;48.130;8.378;2022-11-15T05:05:06;92336.56;;;6.33;86.42
52249;BME280;38541;48.130;8.378;2022-11-15T05:07:51;92340.19;;;6.32;86.27
52249;BME280;38541;48.130;8.378;2022-11-15T05:10:36;92342.88;;;6.37;86.37
52249;BME280;38541;48.130;8.378;2022-11-15T05:13:21;92341.59;;;6.39;86.70
52249;BME280;38541;48.130;8.378;2022-11-15T05:16:06;92340.63;;;6.46;86.56
52249;BME280;38541;48.130;8.378;2022-11-15T05:18:52;92351.34;;;6.49;86.38
52249;BME280;38541;48.130;8.378;2022-11-15T05:21:37;92345.63;;;6.52;86.09
52249;BME280;38541;48.130;8.378;2022-11-15T05:24:23;92333.91;;;6.55;86.04
52249;BME280;38541;48.130;8.378;2022-11-15T05:27:08;92338.63;;;6.58;86.05
52249;BME280;38541;48.130;8.378;2022-11-15T05:29:52;92327.22;;;6.64;86.26
52249;BME280;38541;48.130;8.378;2022-11-15T05:32:37;92330.66;;;6.70;85.94
52249;BME280;38541;48.130;8.378;2022-11-15T05:35:30;92319.72;;;6.73;85.88
52249;BME280;38541;48.130;8.378;2022-11-15T05:38:18;92325.41;;;6.70;85.55
52249;BME280;38541;48.130;8.378;2022-11-15T05:41:03;92317.34;;;6.71;85.51
52249;BME280;38541;48.130;8.378;2022-11-15T05:43:49;92304.00;;;6.68;85.28
52249;BME280;38541;48.130;8.378;2022-11-15T05:46:35;92298.53;;;6.69;85.67
52249;BME280;38541;48.130;8.378;2022-11-15T05:49:26;92306.38;;;6.69;85.27
52249;BME280;38541;48.130;8.378;2022-11-15T05:52:13;92297.22;;;6.67;85.16
52249;BME280;38541;48.130;8.378;2022-11-15T05:55:01;92305.84;;;6.67;85.39
52249;BME280;38541;48.130;8.378;2022-11-15T05:57:46;92308.19;;;6.69;85.41
52249;BME280;38541;48.130;8.378;2022-11-15T06:00:32;92308.72;;;6.71;85.63
52249;BME280;38541;48.130;8.378;2022-11-15T06:03:17;92305.66;;;6.74;85.64
52249;BME280;38541;48.130;8.378;2022-11-15T06:06:02;92302.75;;;6.76;85.36
52249;BME280;38541;48.130;8.378;2022-11-15T06:08:47;92304.88;;;6.79;85.59
52249;BME280;38541;48.130;8.378;2022-11-15T06:11:32;92303.59;;;6.81;85.43
52249;BME280;38541;48.130;8.378;2022-11-15T06:14:17;92303.38;;;6.83;85.40
52249;BME280;38541;48.130;8.378;2022-11-15T06:17:02;92302.06;;;6.85;85.29
52249;BME280;38541;48.130;8.378;2022-11-15T06:19:55;92301.03;;;6.87;85.23
52249;BME280;38541;48.130;8.378;2022-11-15T06:22:39;92304.44;;;6.87;85.29
52249;BME280;38541;48.130;8.378;2022-11-15T06:25:25;92304.69;;;6.91;85.03
52249;BME280;38541;48.130;8.378;2022-11-15T06:28:10;92302.34;;;6.89;84.77
52249;BME280;38541;48.130;8.378;2022-11-15T06:30:56;92308.34;;;6.90;85.14
52249;BME280;38541;48.130;8.378;2022-11-15T06:33:41;92305.81;;;6.95;84.77
52249;BME280;38541;48.130;8.378;2022-11-15T06:36:26;92302.16;;;6.96;84.54
52249;BME280;38541;48.130;8.378;2022-11-15T06:39:11;92306.88;;;6.99;84.84
52249;BME280;38541;48.130;8.378;2022-11-15T06:41:56;92302.69;;;6.98;84.47
52249;BME280;38541;48.130;8.378;2022-11-15T06:44:41;92300.84;;;6.98;84.41
52249;BME280;38541;48.130;8.378;2022-11-15T06:47:27;92300.31;;;6.96;84.29
52249;BME280;38541;48.130;8.378;2022-11-15T06:50:12;92305.28;;;6.98;84.56
52249;BME280;38541;48.130;8.378;2022-11-15T06:53:01;92312.84;;;6.99;84.46
52249;BME280;38541;48.130;8.378;2022-11-15T06:55:47;92317.81;;;6.96;83.88
52249;BME280;38541;48.130;8.378;2022-11-15T06:58:39;92317.28;;;6.94;84.33
52249;BME280;38541;48.130;8.378;2022-11-15T07:01:23;92320.44;;;6.96;84.33
52249;BME280;38541;48.130;8.378;2022-11-15T07:04:08;92326.41;;;6.96;84.37
52249;BME280;38541;48.130;8.378;2022-11-15T07:06:53;92324.84;;;6.95;84.47
52249;BME280;38541;48.130;8.378;2022-11-15T07:09:38;92323.03;;;6.96;84.41
52249;BME280;38541;48.130;8.378;2022-11-15T07:12:23;92322.50;;;6.94;84.23
52249;BME280;38541;48.130;8.378;2022-11-15T07:15:08;92323.56;;;6.98;84.33
52249;BME280;38541;48.130;8.378;2022-11-15T07:17:53;92332.19;;;6.98;84.38
52249;BME280;38541;48.130;8.378;2022-11-15T07:20:38;92325.69;;;7.01;84.30
52249;BME280;38541;48.130;8.378;2022-11-15T07:23:24;92328.81;;;7.03;84.29
52249;BME280;38541;48.130;8.378;2022-11-15T07:26:09;92328.31;;;7.06;84.25
52249;BME280;38541;48.130;8.378;2022-11-15T07:28:54;92329.38;;;7.10;84.13
52249;BME280;38541;48.130;8.378;2022-11-15T07:31:39;92328.91;;;7.13;84.56
52249;BME280;38541;48.130;8.378;2022-11-15T07:34:24;92329.44;;;7.16;83.91
52249;BME280;38541;48.130;8.378;2022-11-15T07:37:09;92325.28;;;7.20;83.73
52249;BME280;38541;48.130;8.378;2022-11-15T07:39:55;92320.09;;;7.25;83.80
52249;BME280;38541;48.130;8.378;2022-11-15T07:42:39;92326.66;;;7.27;83.69
52249;BME280;38541;48.130;8.378;2022-11-15T07:45:45;92322.78;;;7.35;83.71
52249;BME280;38541;48.130;8.378;2022-11-15T07:48:30;92316.50;;;7.36;83.40
52249;BME280;38541;48.130;8.378;2022-11-15T07:51:28;92312.34;;;7.40;83.34
52249;BME280;38541;48.130;8.378;2022-11-15T07:54:13;92319.69;;;7.43;83.44
52249;BME280;38541;48.130;8.378;2022-11-15T07:56:57;92310.56;;;7.46;83.18
52249;BME280;38541;48.130;8.378;2022-11-15T07:59:50;92318.19;;;7.58;83.20
52249;BME280;38541;48.130;8.378;2022-11-15T08:02:35;92317.47;;;7.68;83.27
52249;BME280;38541;48.130;8.378;2022-11-15T08:05:20;92324.03;;;7.76;82.79
52249;BME280;38541;48.130;8.378;2022-11-15T08:08:06;92318.59;;;7.82;82.36
52249;BME280;38541;48.130;8.378;2022-11-15T08:10:51;92322.78;;;7.83;82.46
52249;BME280;38541;48.130;8.378;2022-11-15T08:13:36;92319.66;;;7.92;82.37
52249;BME280;38541;48.130;8.378;2022-11-15T08:16:21;92319.41;;;7.88;82.08
52249;BME280;38541;48.130;8.378;2022-11-15T08:19:06;92321.50;;;7.96;82.63
52249;BME280;38541;48.130;8.378;2022-11-15T08:21:50;92316.81;;;8.04;82.12
52249;BME280;38541;48.130;8.378;2022-11-15T08:24:35;92314.50;;;8.12;82.25
52249;BME280;38541;48.130;8.378;2022-11-15T08:27:20;92308.25;;;8.24;81.36
52249;BME280;38541;48.130;8.378;2022-11-15T08:30:06;92314.53;;;8.28;81.23
52249;BME280;38541;48.130;8.378;2022-11-15T08:32:52;92312.19;;;8.32;81.11
52249;BME280;38541;48.130;8.378;2022-11-15T08:35:39;92306.44;;;8.35;80.91
52249;BME280;38541;48.130;8.378;2022-11-15T08:38:24;92305.16;;;8.42;81.46
52249;BME280;38541;48.130;8.378;2022-11-15T08:41:13;92300.75;;;8.53;81.51
52249;BME280;38541;48.130;8.378;2022-11-15T08:44:00;92300.78;;;8.64;81.41
52249;BME280;38541;48.130;8.378;2022-11-15T08:46:45;92302.59;;;8.68;80.42
52249;BME280;38541;48.130;8.378;2022-11-15T08:49:31;92304.16;;;8.69;80.47
52249;BME280;38541;48.130;8.378;2022-11-15T08:52:15;92291.34;;;8.73;80.07
52249;BME280;38541;48.130;8.378;2022-11-15T08:55:00;92294.75;;;8.74;80.15
52249;BME280;38541;48.130;8.378;2022-11-15T08:57:45;92295.00;;;8.77;80.46
52249;BME280;38541;48.130;8.378;2022-11-15T09:00:30;92288.72;;;8.73;80.32
52249;BME280;38541;48.130;8.378;2022-11-15T09:03:15;92290.31;;;8.84;80.59
52249;BME280;38541;48.130;8.378;2022-11-15T09:06:00;92285.03;;;9.00;80.68
52249;BME280;38541;48.130;8.378;2022-11-15T09:08:46;92285.03;;;9.16;79.96
52249;BME280;38541;48.130;8.378;2022-11-15T09:11:32;92287.66;;;9.26;79.28
52249;BME280;38541;48.130;8.378;2022-11-15T09:14:17;92278.75;;;9.27;79.24
52249;BME280;38541;48.130;8.378;2022-11-15T09:17:02;92278.69;;;9.37;78.84
52249;BME280;38541;48.130;8.378;2022-11-15T09:19:48;92282.13;;;9.48;78.20
52249;BME280;38541;48.130;8.378;2022-11-15T09:22:32;92274.47;;;9.52;78.32
52249;BME280;38541;48.130;8.378;2022-11-15T09:25:18;92272.38;;;9.59;78.20
52249;BME280;38541;48.130;8.378;2022-11-15T09:28:06;92281.28;;;9.63;78.21
52249;BME280;38541;48.130;8.378;2022-11-15T09:30:51;92276.00;;;9.68;78.42
52249;BME280;38541;48.130;8.378;2022-11-15T09:33:36;92275.47;;;9.71;78.80
52249;BME280;38541;48.130;8.378;2022-11-15T09:36:21;92272.84;;;9.77;79.00
52249;BME280;38541;48.130;8.378;2022-11-15T09:39:06;92278.06;;;9.82;78.27
52249;BME280;38541;48.130;8.378;2022-11-15T09:41:58;92276.97;;;9.88;79.10
52249;BME280;38541;48.130;8.378;2022-11-15T09:45:15;92274.34;;;9.93;79.20
52249;BME280;38541;48.130;8.378;2022-11-15T09:51:49;92269.31;;;10.07;79.18
52249;BME280;38541;48.130;8.378;2022-11-15T10:05:22;92274.16;;;10.30;79.08
52249;BME280;38541;48.130;8.378;2022-11-15T10:08:02;92270.97;;;10.38;79.05
52249;BME280;38541;48.130;8.378;2022-11-15T10:10:40;92264.66;;;10.44;78.95
52249;BME280;38541;48.130;8.378;2022-11-15T10:13:12;92265.19;;;10.41;78.02
52249;BME280;38541;48.130;8.378;2022-11-15T10:15:42;92267.47;;;10.53;76.75
52249;BME280;38541;48.130;8.378;2022-11-15T10:20:59;92266.56;;;10.73;75.53
52249;BME280;38541;48.130;8.378;2022-11-15T10:23:26;92257.59;;;10.79;74.15
52249;BME280;38541;48.130;8.378;2022-11-15T10:26:14;92254.88;;;10.90;72.53
52249;BME280;38541;48.130;8.378;2022-11-15T10:28:41;92258.03;;;10.92;69.66
52249;BME280;38541;48.130;8.378;2022-11-15T10:31:25;92253.53;;;10.92;68.88
52249;BME280;38541;48.130;8.378;2022-11-15T10:34:05;92244.81;;;10.97;68.26
52249;BME280;38541;48.130;8.378;2022-11-15T10:36:37;92241.38;;;11.02;68.62
52249;BME280;38541;48.130;8.378;2022-11-15T10:39:03;92242.16;;;11.02;68.03
52249;BME280;38541;48.130;8.378;2022-11-15T10:41:38;92242.63;;;11.09;67.21
52249;BME280;38541;48.130;8.378;2022-11-15T10:44:22;92235.75;;;11.13;67.59
52249;BME280;38541;48.130;8.378;2022-11-15T10:49:25;92231.22;;;11.19;66.58
52249;BME280;38541;48.130;8.378;2022-11-15T10:52:12;92220.91;;;11.23;66.16
52249;BME280;38541;48.130;8.378;2022-11-15T10:54:47;92214.00;;;11.32;66.49
52249;BME280;38541;48.130;8.378;2022-11-15T10:57:17;92214.50;;;11.34;65.32
52249;BME280;38541;48.130;8.378;2022-11-15T10:59:58;92211.75;;;11.45;65.65
52249;BME280;38541;48.130;8.378;2022-11-15T11:04:55;92191.91;;;11.77;65.70
52249;BME280;38541;48.130;8.378;2022-11-15T11:07:30;92187.16;;;11.79;63.79
52249;BME280;38541;48.130;8.378;2022-11-15T11:12:50;92187.53;;;11.91;64.08
52249;BME280;38541;48.130;8.378;2022-11-15T11:15:17;92176.00;;;11.87;63.47
52249;BME280;38541;48.130;8.378;2022-11-15T11:18:25;92180.53;;;12.01;63.97
52249;BME280;38541;48.130;8.378;2022-11-15T11:20:58;92175.19;;;12.11;63.81
52249;BME280;38541;48.130;8.378;2022-11-15T11:24:08;92173.44;;;12.20;63.03
52249;BME280;38541;48.130;8.378;2022-11-15T11:26:45;92177.50;;;12.12;62.65
52249;BME280;38541;48.130;8.378;2022-11-15T11:37:39;92184.91;;;12.10;64.34
52249;BME280;38541;48.130;8.378;2022-11-15T11:45:52;92174.22;;;12.02;65.14
52249;BME280;38541;48.130;8.378;2022-11-15T11:53:50;92175.94;;;11.92;65.79
52249;BME280;38541;48.130;8.378;2022-11-15T11:56:27;92171.94;;;11.95;65.21
52249;BME280;38541;48.130;8.378;2022-11-15T11:59:01;92165.97;;;11.89;64.81
52249;BME280;38541;48.130;8.378;2022-11-15T12:01:37;92161.06;;;12.02;65.60
52249;BME280;38541;48.130;8.378;2022-11-15T12:04:13;92149.06;;;12.15;65.82
52249;BME280;38541;48.130;8.378;2022-11-15T12:06:54;92151.41;;;12.16;65.27
52249;BME280;38541;48.130;8.378;2022-11-15T12:09:43;92145.81;;;12.04;64.38
52249;BME280;38541;48.130;8.378;2022-11-15T12:12:25;92146.22;;;12.11;64.96
52249;BME280;38541;48.130;8.378;2022-11-15T12:17:37;92132.47;;;12.14;65.19
52249;BME280;38541;48.130;8.378;2022-11-15T12:20:23;92131.41;;;12.15;66.22
52249;BME280;38541;48.130;8.378;2022-11-15T12:23:19;92124.47;;;12.19;67.10
52249;BME280;38541;48.130;8.378;2022-11-15T12:25:53;92130.75;;;12.23;67.49
52249;BME280;38541;48.130;8.378;2022-11-15T12:28:38;92124.13;;;12.26;69.16
52249;BME280;38541;48.130;8.378;2022-11-15T12:34:36;92118.97;;;12.35;71.77
52249;BME280;38541;48.130;8.378;2022-11-15T12:40:21;92099.16;;;12.23;72.40
52249;BME280;38541;48.130;8.378;2022-11-15T12:45:43;92085.56;;;12.16;71.79
52249;BME280;38541;48.130;8.378;2022-11-15T12:50:54;92081.59;;;12.19;70.78
52249;BME280;38541;48.130;8.378;2022-11-15T13:07:01;92054.56;;;12.74;69.67
52249;BME280;38541;48.130;8.378;2022-11-15T13:14:46;92041.28;;;12.93;66.54
52249;BME280;38541;48.130;8.378;2022-11-15T13:19:57;92040.09;;;13.13;66.75
52249;BME280;38541;48.130;8.378;2022-11-15T13:22:26;92029.38;;;13.10;68.80
52249;BME280;38541;48.130;8.378;2022-11-15T13:25:15;92033.38;;;13.07;69.15
52249;BME280;38541;48.130;8.378;2022-11-15T13:27:47;92036.38;;;13.01;69.04
52249;BME280;38541;48.130;8.378;2022-11-15T13:30:19;92025.84;;;12.87;69.14
52249;BME280;38541;48.130;8.378;2022-11-15T13:32:47;92024.19;;;12.77;69.57
52249;BME280;38541;48.130;8.378;2022-11-15T13:35:25;92023.63;;;12.66;69.68
52249;BME280;38541;48.130;8.378;2022-11-15T13:37:53;92028.56;;;12.53;70.53
52249;BME280;38541;48.130;8.378;2022-11-15T13:40:35;92025.72;;;12.50;70.93
52249;BME280;38541;48.130;8.378;2022-11-15T13:43:35;92020.06;;;12.43;71.19
52249;BME280;38541;48.130;8.378;2022-11-15T13:48:38;92018.16;;;12.15;72.08
52249;BME280;38541;48.130;8.378;2022-11-15T13:51:09;92013.56;;;12.07;72.58
52249;BME280;38541;48.130;8.378;2022-11-15T13:53:41;92011.53;;;12.04;72.75
52249;BME280;38541;48.130;8.378;2022-11-15T13:56:08;92004.25;;;11.95;72.89
52249;BME280;38541;48.130;8.378;2022-11-15T13:58:38;92004.03;;;11.92;73.19
52249;BME280;38541;48.130;8.378;2022-11-15T14:01:06;92009.69;;;11.85;73.66
52249;BME280;38541;48.130;8.378;2022-11-15T14:03:35;92011.66;;;11.74;74.50
52249;BME280;38541;48.130;8.378;2022-11-15T14:06:10;92009.44;;;11.67;75.00
52249;BME280;38541;48.130;8.378;2022-11-15T14:11:37;92005.50;;;11.65;75.68
52249;BME280;38541;48.130;8.378;2022-11-15T14:16:35;91992.59;;;11.49;75.76
52249;BME280;38541;48.130;8.378;2022-11-15T14:19:04;92000.56;;;11.44;75.91
52249;BME280;38541;48.130;8.378;2022-11-15T14:21:31;91994.59;;;11.38;75.98
52249;BME280;38541;48.130;8.378;2022-11-15T14:24:17;91997.28;;;11.33;75.90
52249;BME280;38541;48.130;8.378;2022-11-15T14:26:44;91984.72;;;11.30;76.05
52249;BME280;38541;48.130;8.378;2022-11-15T14:29:24;91985.84;;;11.24;76.31
52249;BME280;38541;48.130;8.378;2022-11-15T14:31:52;91996.69;;;11.17;76.44
52249;BME280;38541;48.130;8.378;2022-11-15T14:34:19;91993.81;;;11.19;76.70
52249;BME280;38541;48.130;8.378;2022-11-15T14:36:47;91984.94;;;11.15;76.62
52249;BME280;38541;48.130;8.378;2022-11-15T14:39:14;91987.91;;;11.08;76.63
52249;BME280;38541;48.130;8.378;2022-11-15T14:41:40;91985.53;;;11.06;76.71
52249;BME280;38541;48.130;8.378;2022-11-15T14:44:10;91967.78;;;10.98;76.66
52249;BME280;38541;48.130;8.378;2022-11-15T14:46:36;91969.19;;;10.90;76.74
52249;BME280;38541;48.130;8.378;2022-11-15T14:49:03;91966.34;;;10.87;77.38
52249;BME280;38541;48.130;8.378;2022-11-15T14:51:29;91960.09;;;10.82;76.78
52249;BME280;38541;48.130;8.378;2022-11-15T14:53:57;91964.94;;;10.75;76.74
52249;BME280;38541;48.130;8.378;2022-11-15T14:56:23;91961.09;;;10.67;76.43
52249;BME280;38541;48.130;8.378;2022-11-15T14:58:50;91962.41;;;10.65;76.22
52249;BME280;38541;48.130;8.378;2022-11-15T15:01:20;91965.59;;;10.62;75.62
52249;BME280;38541;48.130;8.378;2022-11-15T15:03:47;91955.59;;;10.64;75.38
52249;BME280;38541;48.130;8.378;2022-11-15T15:06:14;91950.41;;;10.59;75.20
52249;BME280;38541;48.130;8.378;2022-11-15T15:08:45;91948.41;;;10.50;75.11
52249;BME280;38541;48.130;8.378;2022-11-15T15:11:26;91944.03;;;10.40;74.60
52249;BME280;38541;48.130;8.378;2022-11-15T15:13:54;91942.78;;;10.33;75.00
52249;BME280;38541;48.130;8.378;2022-11-15T15:16:23;91942.84;;;10.27;74.95
52249;BME280;38541;48.130;8.378;2022-11-15T15:18:50;91933.41;;;10.26;75.11
52249;BME280;38541;48.130;8.378;2022-11-15T15:21:22;91929.53;;;10.24;75.14
52249;BME280;38541;48.130;8.378;2022-11-15T15:24:00;91925.03;;;10.24;74.90
52249;BME280;38541;48.130;8.378;2022-11-15T15:26:28;91921.91;;;10.22;74.42
52249;BME280;38541;48.130;8.378;2022-11-15T15:28:54;91922.53;;;10.14;74.38
52249;BME280;38541;48.130;8.378;2022-11-15T15:31:20;91928.63;;;10.09;74.44
52249;BME280;38541;48.130;8.378;2022-11-15T15:33:47;91919.44;;;10.07;74.46
52249;BME280;38541;48.130;8.378;2022-11-15T15:36:17;91913.75;;;9.99;73.42
52249;BME280;38541;48.130;8.378;2022-11-15T15:38:44;91909.06;;;9.96;73.50
52249;BME280;38541;48.130;8.378;2022-11-15T15:41:14;91909.06;;;9.96;73.77
52249;BME280;38541;48.130;8.378;2022-11-15T15:43:41;91901.47;;;9.95;73.98
52249;BME280;38541;48.130;8.378;2022-11-15T15:46:10;91912.22;;;9.93;73.32
52249;BME280;38541;48.130;8.378;2022-11-15T15:48:37;91914.66;;;9.90;73.29
52249;BME280;38541;48.130;8.378;2022-11-15T15:51:06;91901.81;;;9.88;73.11
52249;BME280;38541;48.130;8.378;2022-11-15T15:53:45;91895.50;;;9.89;73.43
52249;BME280;38541;48.130;8.378;2022-11-15T15:56:11;91895.00;;;9.87;73.21
52249;BME280;38541;48.130;8.378;2022-11-15T15:58:38;91888.75;;;9.83;73.38
52249;BME280;38541;48.130;8.378;2022-11-15T16:01:04;91890.88;;;9.81;73.20
52249;BME280;38541;48.130;8.378;2022-11-15T16:03:31;91882.00;;;9.77;73.11
52249;BME280;38541;48.130;8.378;2022-11-15T16:05:57;91886.72;;;9.75;73.05
52249;BME280;38541;48.130;8.378;2022-11-15T16:08:25;91873.66;;;9.69;72.99
52249;BME280;38541;48.130;8.378;2022-11-15T16:11:13;91879.47;;;9.66;73.03
52249;BME280;38541;48.130;8.378;2022-11-15T16:13:39;91873.66;;;9.69;73.51